Time;durP1;ratioP1;P1;durP2;ratioP2;P2;SDS_P1;SDS_P2;PMS_P1;PMS_P2;Temp;Humidity;BMP_temperature;BMP_pressure;BME280_temperature;BME280_humidity;BME280_pressure;Samples;Min_cycle;Max_cycle;Signal;HPM_P1;HPM_P2
2022/07/04 00:01:24;;;;;;;3.03;1.38;;;;;;;19.84;47.35;100889.75;5093654;28;20605;-67
2022/07/04 00:03:50;;;;;;;12.35;1.52;;;;;;;19.83;47.46;100899.00;5093314;28;20044;-67
2022/07/04 00:06:17;;;;;;;3.88;1.58;;;;;;;19.83;47.41;100893.53;5092046;28;20048;-67
2022/07/04 00:08:44;;;;;;;5.57;1.70;;;;;;;19.75;47.70;100896.50;5092484;28;20055;-67
2022/07/04 00:11:10;;;;;;;3.25;1.50;;;;;;;19.70;47.93;100899.06;5092025;28;20093;-67
2022/07/04 00:13:37;;;;;;;3.33;1.45;;;;;;;19.65;48.03;100888.75;5092760;28;20130;-67
2022/07/04 00:16:04;;;;;;;4.55;1.42;;;;;;;19.61;48.30;100901.13;5091955;28;20072;-67
2022/07/04 00:18:30;;;;;;;6.13;1.63;;;;;;;19.59;48.42;100905.13;5091986;28;20044;-67
2022/07/04 00:20:57;;;;;;;4.72;1.98;;;;;;;19.60;48.48;100898.63;5093309;28;20059;-67
2022/07/04 00:23:23;;;;;;;9.52;1.85;;;;;;;19.57;48.61;100893.63;5092098;28;20452;-67
2022/07/04 00:25:50;;;;;;;5.22;1.50;;;;;;;19.55;48.69;100888.38;5091998;28;20134;-67
2022/07/04 00:28:16;;;;;;;2.10;1.42;;;;;;;19.44;49.01;100879.00;5093230;28;20499;-67
2022/07/04 00:30:43;;;;;;;2.15;1.23;;;;;;;19.48;48.89;100882.13;5092310;28;20062;-67
2022/07/04 00:33:13;;;;;;;4.65;1.38;;;;;;;19.35;49.32;100874.88;5092497;28;20074;-67
2022/07/04 00:35:40;;;;;;;3.33;1.63;;;;;;;19.32;49.68;100871.75;5091326;28;20098;-67
2022/07/04 00:38:07;;;;;;;2.88;1.20;;;;;;;19.29;49.71;100874.91;5092357;28;20131;-67
2022/07/04 00:40:34;;;;;;;5.72;1.63;;;;;;;19.25;49.67;100877.22;5092081;28;20119;-68
2022/07/04 00:43:04;;;;;;;3.92;1.80;;;;;;;19.12;50.66;100859.03;5089922;28;20067;-67
2022/07/04 00:45:31;;;;;;;6.18;1.77;;;;;;;18.89;51.58;100861.34;5092144;28;20127;-67
2022/07/04 00:47:57;;;;;;;6.70;1.70;;;;;;;18.80;52.05;100858.03;5092294;28;20082;-67
2022/07/04 00:50:25;;;;;;;3.72;1.80;;;;;;;18.64;52.40;100862.00;5090077;28;20044;-67
2022/07/04 00:52:53;;;;;;;2.20;1.75;;;;;;;18.77;51.66;100878.31;5091932;28;20067;-67
2022/07/04 00:55:22;;;;;;;2.63;1.33;;;;;;;19.01;51.16;100887.72;5091991;28;20466;-67
2022/07/04 00:57:49;;;;;;;4.38;1.42;;;;;;;19.08;50.87;100885.00;5090798;28;20122;-67
2022/07/04 01:00:18;;;;;;;3.90;1.90;;;;;;;19.11;50.78;100886.47;5091950;28;20048;-67
2022/07/04 01:02:45;;;;;;;5.90;1.50;;;;;;;19.08;50.99;100895.03;5090769;28;20048;-67
2022/07/04 01:09:41;;;;;;;4.72;1.90;;;;;;;19.13;50.89;100906.09;5060705;28;20059;-67
2022/07/04 01:12:08;;;;;;;2.47;1.70;;;;;;;19.12;50.83;100913.44;5071331;28;20075;-67
2022/07/04 01:14:38;;;;;;;4.38;2.03;;;;;;;19.10;51.05;100920.13;5071671;28;20472;-67
2022/07/04 01:17:05;;;;;;;4.40;1.92;;;;;;;19.06;51.41;100921.59;5068146;28;20068;-68
2022/07/04 01:19:32;;;;;;;5.20;1.52;;;;;;;19.04;52.04;100929.16;5073190;28;20488;-67
2022/07/04 01:22:06;;;;;;;2.53;1.75;;;;;;;19.05;51.53;100925.38;5073611;28;20147;-67
2022/07/04 01:24:32;;;;;;;3.78;1.90;;;;;;;19.04;51.59;100926.44;5070891;28;20449;-67
2022/07/04 01:26:59;;;;;;;5.55;1.85;;;;;;;19.04;52.17;100931.88;5070826;28;20139;-67
2022/07/04 01:29:25;;;;;;;4.47;1.40;;;;;;;19.01;52.13;100939.38;5070326;28;20052;-67
2022/07/04 01:31:53;;;;;;;4.00;1.88;;;;;;;18.98;52.09;100931.66;5072133;28;20452;-67
2022/07/04 01:34:20;;;;;;;5.90;1.90;;;;;;;18.92;52.23;100937.91;5070383;28;20079;-67
2022/07/04 01:36:46;;;;;;;4.50;1.77;;;;;;;18.88;52.50;100944.78;5069683;28;20123;-67
2022/07/04 01:39:13;;;;;;;2.40;1.90;;;;;;;18.87;52.80;100940.41;5086344;28;20060;-67
2022/07/04 01:41:39;;;;;;;12.13;2.20;;;;;;;18.79;53.32;100938.75;5090834;28;20135;-67
2022/07/04 01:44:06;;;;;;;5.03;1.80;;;;;;;18.75;53.11;100940.19;5080859;28;20503;-67
2022/07/04 01:46:32;;;;;;;6.30;2.30;;;;;;;18.75;53.63;100948.34;5089987;28;20461;-67
2022/07/04 01:48:59;;;;;;;9.98;2.47;;;;;;;18.69;53.80;100957.34;5089020;28;20052;-67
2022/07/04 01:51:26;;;;;;;7.65;2.08;;;;;;;18.70;53.79;100966.34;5090237;28;20123;-67
2022/07/04 01:53:52;;;;;;;4.60;1.90;;;;;;;18.68;54.08;100971.13;5091192;28;20043;-67
2022/07/04 01:56:19;;;;;;;6.18;2.30;;;;;;;18.66;54.10;100974.06;5087784;28;20040;-67
2022/07/04 01:58:45;;;;;;;4.88;2.08;;;;;;;18.58;55.03;100982.41;5070457;28;20083;-67
2022/07/04 02:01:30;;;;;;;2.22;1.70;;;;;;;18.45;55.75;100983.25;5090791;28;20083;-68
2022/07/04 02:03:58;;;;;;;4.60;1.80;;;;;;;18.45;55.40;100975.09;5088119;28;20044;-67
2022/07/04 02:06:25;;;;;;;7.00;1.90;;;;;;;18.39;55.90;100973.19;5084937;28;20504;-67
2022/07/04 02:14:22;;;;;;;4.80;2.47;;;;;;;18.36;56.39;100979.03;5070750;28;20106;-67
2022/07/04 02:16:49;;;;;;;6.05;2.30;;;;;;;18.34;56.65;100981.09;5064296;28;20049;-67
2022/07/04 02:19:15;;;;;;;2.70;2.25;;;;;;;18.27;56.63;100977.53;5071054;28;20094;-67
2022/07/04 02:21:44;;;;;;;3.38;2.30;;;;;;;18.24;57.03;100986.13;5077912;28;20045;-67
2022/07/04 02:24:11;;;;;;;5.07;2.40;;;;;;;18.18;57.74;100987.75;5070070;28;20071;-67
2022/07/04 02:26:37;;;;;;;3.08;2.13;;;;;;;18.22;57.84;100990.91;5069677;28;20132;-67
2022/07/04 02:29:04;;;;;;;3.75;2.40;;;;;;;18.09;58.16;100989.78;5070105;28;20071;-67
2022/07/04 02:31:30;;;;;;;6.63;2.88;;;;;;;18.08;58.32;100992.69;5070270;28;20063;-67
2022/07/04 02:33:57;;;;;;;6.18;2.92;;;;;;;18.04;58.95;100991.44;5073315;28;20055;-68
2022/07/04 02:36:23;;;;;;;5.35;2.40;;;;;;;17.98;58.91;100990.38;5074553;28;20045;-67
2022/07/04 02:38:50;;;;;;;5.53;2.88;;;;;;;17.90;59.41;100997.84;5074147;28;20076;-67
2022/07/04 02:41:16;;;;;;;4.13;2.53;;;;;;;17.91;59.84;101005.78;5074304;28;20068;-67
2022/07/04 02:43:43;;;;;;;7.50;3.10;;;;;;;17.88;59.69;101008.91;5072310;28;20127;-67
2022/07/04 02:46:10;;;;;;;6.72;3.40;;;;;;;17.84;59.98;101002.19;5068489;28;20496;-67
2022/07/04 02:48:36;;;;;;;5.00;2.58;;;;;;;17.87;60.34;101007.22;5086715;28;20070;-67
2022/07/04 02:51:03;;;;;;;10.27;2.70;;;;;;;17.80;60.58;101009.09;5073997;28;20044;-67
2022/07/04 02:53:30;;;;;;;5.68;2.95;;;;;;;17.83;60.35;101011.41;5074446;28;20122;-67
2022/07/04 02:55:56;;;;;;;5.75;2.85;;;;;;;17.85;60.43;101026.41;5074303;28;20063;-67
2022/07/04 02:58:23;;;;;;;5.18;3.10;;;;;;;17.81;60.51;101018.88;5080725;28;20103;-67
2022/07/04 03:00:49;;;;;;;7.30;3.35;;;;;;;17.76;60.61;101007.81;5091606;28;20127;-67
2022/07/04 03:03:16;;;;;;;8.77;3.10;;;;;;;17.72;60.95;101007.38;5093401;28;20407;-67
2022/07/04 03:05:42;;;;;;;8.40;3.28;;;;;;;17.67;61.22;101001.69;5094477;28;20441;-67
2022/07/04 03:08:09;;;;;;;8.23;3.22;;;;;;;17.60;61.21;100996.22;5093810;28;20048;-67
2022/07/04 03:10:35;;;;;;;11.45;3.38;;;;;;;17.55;61.71;100995.19;5093945;28;20075;-67
2022/07/04 03:13:02;;;;;;;4.75;2.35;;;;;;;17.55;61.56;100993.28;5094559;28;20448;-67
2022/07/04 03:15:33;;;;;;;7.68;2.90;;;;;;;17.65;61.19;101001.06;5094125;28;20090;-67
2022/07/04 03:17:59;;;;;;;6.00;3.38;;;;;;;17.64;61.50;101006.69;5091206;28;20066;-67
2022/07/04 03:20:26;;;;;;;6.72;3.10;;;;;;;17.63;61.34;101026.72;5093529;28;20064;-67
2022/07/04 03:22:54;;;;;;;4.90;2.65;;;;;;;17.67;61.17;101028.00;5093910;28;20498;-67
2022/07/04 03:25:21;;;;;;;4.97;2.90;;;;;;;17.72;60.95;101030.97;5092678;28;20068;-67
2022/07/04 03:27:47;;;;;;;5.80;3.22;;;;;;;17.74;61.10;101028.88;5092504;28;20492;-67
2022/07/04 03:30:14;;;;;;;6.15;2.60;;;;;;;17.69;61.27;101042.22;5093262;28;20035;-67
2022/07/04 03:32:40;;;;;;;7.07;3.15;;;;;;;17.68;61.40;101040.50;5089268;28;20060;-67
2022/07/04 03:35:07;;;;;;;7.85;3.33;;;;;;;17.64;61.18;101034.66;5093967;28;20126;-68
2022/07/04 03:37:34;;;;;;;10.52;3.28;;;;;;;17.64;61.44;101039.25;5093423;28;20476;-67
2022/07/04 03:40:00;;;;;;;6.68;3.58;;;;;;;17.66;61.37;101039.91;5093580;28;20127;-67
2022/07/04 03:42:27;;;;;;;5.70;3.42;;;;;;;17.68;61.57;101048.66;5093315;28;20132;-68
2022/07/04 03:44:54;;;;;;;5.72;3.10;;;;;;;17.67;61.55;101044.28;5092511;28;20386;-67
2022/07/04 03:47:20;;;;;;;5.25;3.58;;;;;;;17.61;61.83;101051.31;5093099;28;20447;-67
2022/07/04 03:49:47;;;;;;;6.82;3.63;;;;;;;17.55;62.06;101055.69;5092324;28;20150;-67
2022/07/04 03:52:13;;;;;;;8.60;3.50;;;;;;;17.45;62.62;101047.06;5091727;28;20076;-67
2022/07/04 03:54:40;;;;;;;6.55;3.10;;;;;;;17.54;62.06;101064.84;5092287;28;20488;-67
2022/07/04 03:57:06;;;;;;;6.72;3.90;;;;;;;17.59;62.20;101064.28;5091689;28;20082;-67
2022/07/04 03:59:33;;;;;;;5.80;3.58;;;;;;;17.58;61.92;101073.44;5075102;28;20477;-67
2022/07/04 04:01:59;;;;;;;5.07;2.97;;;;;;;17.57;61.87;101080.72;5070148;28;20441;-67
2022/07/04 04:07:12;;;;;;;6.07;2.95;;;;;;;17.52;62.13;101085.09;5092496;28;20044;-67
2022/07/04 04:09:38;;;;;;;9.82;4.43;;;;;;;17.47;62.71;101088.38;5092423;28;20496;-67
2022/07/04 04:12:05;;;;;;;6.55;3.40;;;;;;;17.48;62.41;101098.22;5072191;28;20127;-67
2022/07/04 04:14:32;;;;;;;6.43;3.33;;;;;;;17.46;62.65;101092.13;5071848;28;20059;-67
2022/07/04 04:16:58;;;;;;;6.65;3.60;;;;;;;17.45;62.69;101095.06;5073110;28;20131;-67
2022/07/04 04:19:25;;;;;;;7.10;3.15;;;;;;;17.50;62.34;101096.13;5072992;28;20076;-67
2022/07/04 04:21:51;;;;;;;9.35;3.13;;;;;;;17.48;62.58;101095.50;5078177;28;20040;-68
2022/07/04 04:24:18;;;;;;;7.78;3.53;;;;;;;17.55;62.41;101101.81;5074015;28;20048;-67
2022/07/04 04:26:45;;;;;;;9.35;3.88;;;;;;;17.45;63.11;101104.03;5075260;28;20044;-67
2022/07/04 04:29:11;;;;;;;11.68;3.63;;;;;;;17.50;62.55;101104.25;5091772;28;20545;-67
2022/07/04 04:31:38;;;;;;;6.32;3.55;;;;;;;17.48;62.70;101098.22;5092452;28;20098;-67
2022/07/04 04:34:05;;;;;;;6.18;3.47;;;;;;;17.50;62.40;101087.97;5092874;28;20126;-67
2022/07/04 04:36:31;;;;;;;7.63;3.40;;;;;;;17.53;62.49;101093.00;5113449;28;20146;-66
2022/07/04 04:38:58;;;;;;;5.05;3.33;;;;;;;17.54;62.53;101100.09;5111634;28;20047;-67
2022/07/04 04:41:25;;;;;;;6.10;3.30;;;;;;;17.49;63.07;101099.88;5112971;28;20040;-68
2022/07/04 04:43:51;;;;;;;7.63;3.30;;;;;;;17.54;62.62;101105.53;5112002;28;20074;-66
2022/07/04 04:46:20;;;;;;;10.73;4.10;;;;;;;17.52;62.71;101107.63;5110729;28;20135;-66
2022/07/04 04:48:47;;;;;;;8.80;3.58;;;;;;;17.58;62.25;101112.28;5100628;28;20506;-66
2022/07/04 04:51:13;;;;;;;6.50;3.38;;;;;;;17.55;62.54;101109.94;5101845;28;20044;-66
2022/07/04 04:53:40;;;;;;;7.72;3.35;;;;;;;17.62;62.13;101115.44;5102518;28;20044;-67
2022/07/04 04:56:06;;;;;;;8.95;3.83;;;;;;;17.62;62.11;101128.16;5099318;28;20074;-67
2022/07/04 04:58:33;;;;;;;4.65;2.95;;;;;;;17.62;62.09;101129.00;5103952;28;20071;-67
2022/07/04 05:01:02;;;;;;;8.55;4.05;;;;;;;17.67;63.23;101125.66;5100329;28;20119;-66
2022/07/04 05:03:48;;;;;;;10.18;3.20;;;;;;;17.69;62.97;101135.31;5087583;28;20062;-66
2022/07/04 05:06:15;;;;;;;8.43;3.08;;;;;;;17.71;62.51;101135.09;5092072;28;20165;-67
2022/07/04 05:08:41;;;;;;;8.45;3.00;;;;;;;17.72;62.14;101129.47;5090833;28;20445;-67
2022/07/04 05:11:08;;;;;;;4.97;2.65;;;;;;;17.73;61.91;101131.16;5090573;28;20496;-67
2022/07/04 05:13:35;;;;;;;8.38;3.05;;;;;;;17.71;61.44;101125.06;5091971;28;20044;-67
2022/07/04 05:16:01;;;;;;;6.18;3.00;;;;;;;17.75;61.59;101129.09;5091056;28;20131;-66
2022/07/04 05:18:28;;;;;;;6.75;2.72;;;;;;;17.74;61.31;101126.56;5089786;28;20523;-65
2022/07/04 05:20:54;;;;;;;9.20;2.70;;;;;;;17.71;61.19;101130.50;5091959;28;20131;-66
2022/07/04 05:23:21;;;;;;;8.43;2.75;;;;;;;17.77;60.98;101139.72;5090320;28;20134;-66
2022/07/04 05:25:48;;;;;;;5.55;2.40;;;;;;;17.68;61.07;101143.63;5091864;28;20467;-66
2022/07/04 05:28:14;;;;;;;6.82;2.60;;;;;;;17.73;60.74;101158.28;5091092;28;20044;-66
2022/07/04 05:30:42;;;;;;;5.75;2.05;;;;;;;17.81;60.79;101157.28;5087646;28;20093;-66
2022/07/04 05:33:09;;;;;;;3.65;2.05;;;;;;;17.74;60.72;101153.69;5085431;28;20459;-66
2022/07/04 05:35:36;;;;;;;3.70;2.08;;;;;;;17.65;60.60;101158.44;5085226;28;20110;-66
2022/07/04 05:38:03;;;;;;;5.90;1.70;;;;;;;;;;5082291;28;20139;-66
2022/07/04 05:40:30;;;;;;;6.13;1.83;;;;;;;17.51;60.80;101171.06;5092221;28;20048;-66
2022/07/04 05:42:56;;;;;;;8.48;2.22;;;;;;;17.58;60.37;101161.09;5091605;28;20496;-66
2022/07/04 05:45:23;;;;;;;2.83;1.95;;;;;;;17.59;60.04;101157.34;5088965;28;20076;-66
2022/07/04 05:47:49;;;;;;;4.20;1.70;;;;;;;17.57;59.66;101162.13;5090384;28;20048;-67
2022/07/04 05:50:16;;;;;;;4.63;1.75;;;;;;;17.58;59.48;101171.13;5083269;28;20540;-66
2022/07/04 05:52:42;;;;;;;9.38;1.90;;;;;;;17.67;59.04;101166.38;5089590;28;20068;-67
2022/07/04 05:55:09;;;;;;;5.57;1.70;;;;;;;17.72;59.22;101159.34;5088221;28;20150;-67
2022/07/04 05:57:36;;;;;;;5.00;2.05;;;;;;;17.66;59.42;101165.53;5090820;28;20553;-66
2022/07/04 06:00:11;;;;;;;5.78;2.03;;;;;;;17.69;58.86;101170.56;5091322;28;20048;-66
2022/07/04 06:02:38;;;;;;;3.50;2.03;;;;;;;17.68;58.72;101162.63;5091331;28;20047;-67
2022/07/04 06:05:05;;;;;;;4.18;1.63;;;;;;;17.81;58.55;101160.00;5106940;28;20039;-66
2022/07/04 06:07:31;;;;;;;5.65;1.80;;;;;;;17.81;58.52;101160.00;5109081;28;20122;-66
2022/07/04 06:09:58;;;;;;;151.77;8.73;;;;;;;17.83;57.16;101164.22;5110245;28;20142;-69
2022/07/04 06:12:24;;;;;;;26.95;2.85;;;;;;;17.72;57.02;101161.22;5114307;28;20130;-66
2022/07/04 06:14:51;;;;;;;17.23;2.03;;;;;;;17.69;56.75;101176.00;5114589;28;20478;-66
2022/07/04 06:17:17;;;;;;;7.90;1.67;;;;;;;17.69;56.70;101175.16;5112781;28;20130;-66
2022/07/04 06:19:44;;;;;;;2.00;1.20;;;;;;;17.71;56.88;101170.38;5112742;28;20539;-67
2022/07/04 06:22:11;;;;;;;4.63;1.40;;;;;;;17.65;56.84;101179.28;5114991;28;20485;-67
2022/07/04 06:24:37;;;;;;;9.88;2.33;;;;;;;17.66;56.70;101181.81;5115649;28;20127;-67
2022/07/04 06:27:04;;;;;;;5.00;1.20;;;;;;;17.66;56.08;101187.25;5108575;28;20044;-67
2022/07/04 06:29:31;;;;;;;5.90;1.30;;;;;;;17.59;55.20;101192.63;5083721;28;20135;-68
2022/07/04 06:31:57;;;;;;;5.95;1.02;;;;;;;17.56;54.62;101198.44;5094347;28;20535;-68
2022/07/04 06:37:09;;;;;;;2.17;1.13;;;;;;;17.67;54.20;101204.34;5095344;28;20066;-67
2022/07/04 06:39:36;;;;;;;9.40;1.02;;;;;;;17.76;54.12;101209.47;5095775;28;20135;-67
2022/07/04 06:42:02;;;;;;;2.35;1.00;;;;;;;17.69;54.25;101214.00;5095037;28;20072;-67
2022/07/04 06:44:29;;;;;;;6.53;1.27;;;;;;;17.74;53.53;101213.41;5091024;28;20082;-67
2022/07/04 06:46:55;;;;;;;4.13;1.38;;;;;;;17.77;53.18;101207.59;5093676;28;20074;-67
2022/07/04 06:49:22;;;;;;;3.55;1.40;;;;;;;17.96;52.98;101208.75;5094655;28;20043;-68
2022/07/04 06:51:48;;;;;;;6.57;1.58;;;;;;;18.04;52.85;101203.19;5077290;28;20136;-67
2022/07/04 06:54:15;;;;;;;6.40;1.27;;;;;;;18.04;52.44;101214.91;5094835;28;20097;-67
2022/07/04 06:56:42;;;;;;;4.07;1.10;;;;;;;18.05;52.10;101216.56;5092202;28;20147;-68
2022/07/04 06:59:08;;;;;;;3.10;0.85;;;;;;;18.20;51.29;101221.06;5090661;28;20567;-68
2022/07/04 07:01:35;;;;;;;1.85;0.85;;;;;;;18.23;51.40;101220.69;5093237;28;20118;-68
2022/07/04 07:04:02;;;;;;;5.32;1.30;;;;;;;18.38;50.57;101220.59;5080163;28;20055;-68
2022/07/04 07:06:28;;;;;;;3.22;1.20;;;;;;;18.27;50.77;101220.09;5077400;28;20068;-68
2022/07/04 07:08:55;;;;;;;4.10;0.98;;;;;;;18.40;50.68;101219.34;5075764;28;20485;-68
2022/07/04 07:11:21;;;;;;;5.55;1.33;;;;;;;18.81;50.05;101218.50;5073195;28;20067;-68
2022/07/04 07:13:51;;;;;;;6.53;1.33;;;;;;;18.78;50.13;101218.91;5074335;28;20049;-68
2022/07/04 07:16:19;;;;;;;9.70;1.58;;;;;;;18.72;50.08;101225.13;5075124;28;20049;-68
2022/07/04 07:18:46;;;;;;;10.60;1.05;;;;;;;18.83;49.89;101219.16;5074461;28;20049;-68
2022/07/04 07:21:12;;;;;;;3.15;1.30;;;;;;;18.99;49.61;101216.06;5075564;28;20041;-68
2022/07/04 07:23:40;;;;;;;5.18;1.35;;;;;;;19.12;49.33;101215.28;5075111;28;20139;-68
2022/07/04 07:26:08;;;;;;;5.43;1.20;;;;;;;19.02;49.41;101218.41;5075821;28;20067;-68
2022/07/04 07:28:35;;;;;;;3.58;1.23;;;;;;;19.21;48.35;101215.97;5094296;28;20083;-68
2022/07/04 07:31:02;;;;;;;5.35;1.50;;;;;;;19.13;48.39;101224.28;5095121;28;20044;-68
2022/07/04 07:33:29;;;;;;;5.78;1.52;;;;;;;19.00;48.30;101225.94;5094038;28;20101;-68
2022/07/04 07:35:55;;;;;;;3.10;1.17;;;;;;;19.00;48.77;101223.22;5094718;28;20072;-68
2022/07/04 07:38:22;;;;;;;8.18;1.30;;;;;;;18.80;48.87;101235.84;5094254;28;20127;-68
2022/07/04 07:40:49;;;;;;;1.23;0.73;;;;;;;18.62;49.66;101239.13;5113335;28;20071;-68
2022/07/04 07:43:15;;;;;;;2.60;1.00;;;;;;;18.63;49.20;101229.09;5113857;28;20122;-68
2022/07/04 07:45:42;;;;;;;4.80;1.08;;;;;;;18.52;49.18;101242.19;5115053;28;20052;-68
2022/07/04 07:48:08;;;;;;;2.42;0.95;;;;;;;18.33;49.63;101242.91;5110116;28;20054;-68
2022/07/04 07:50:36;;;;;;;3.78;1.48;;;;;;;18.26;49.25;101251.00;5113223;28;20179;-68
2022/07/04 07:53:02;;;;;;;4.95;0.90;;;;;;;18.26;49.43;101242.03;5113513;28;20104;-68
2022/07/04 07:55:29;;;;;;;2.10;0.93;;;;;;;18.23;49.02;101245.13;5110832;28;20142;-68
2022/07/04 07:57:57;;;;;;;1.95;1.10;;;;;;;18.41;48.53;101250.06;5113746;28;20067;-68
2022/07/04 08:00:24;;;;;;;1.25;0.82;;;;;;;18.42;48.30;101244.44;5112669;28;20070;-68
2022/07/04 08:05:56;;;;;;;2.40;0.90;;;;;;;18.41;48.00;101242.75;5090969;28;20044;-68
2022/07/04 08:08:23;;;;;;;2.90;0.80;;;;;;;18.44;47.75;101244.22;5093907;28;20155;-68
2022/07/04 08:10:50;;;;;;;3.20;1.15;;;;;;;18.38;47.98;101247.75;5112031;28;20074;-67
2022/07/04 08:13:17;;;;;;;5.93;1.17;;;;;;;18.41;47.91;101247.34;5113406;28;20043;-68
2022/07/04 08:15:43;;;;;;;4.25;0.70;;;;;;;18.35;48.26;101248.97;5099370;28;20075;-67
2022/07/04 08:18:10;;;;;;;7.68;1.02;;;;;;;18.40;48.23;101251.09;5097351;28;20457;-67
2022/07/04 08:20:37;;;;;;;5.18;0.90;;;;;;;18.46;48.00;101256.56;5092550;28;20569;-67
2022/07/04 08:23:23;;;;;;;2.45;0.75;;;;;;;18.83;47.26;101254.50;5091421;28;20043;-68
2022/07/04 08:25:50;;;;;;;2.15;0.93;;;;;;;19.32;46.06;101256.16;5091221;28;20403;-69
2022/07/04 08:28:16;;;;;;;3.83;1.33;;;;;;;19.63;45.37;101252.03;5091301;28;20483;-67
2022/07/04 08:30:43;;;;;;;4.90;0.85;;;;;;;19.90;44.60;101252.91;5090864;28;20128;-69
2022/07/04 08:33:09;;;;;;;5.95;0.90;;;;;;;19.92;43.94;101253.53;5092201;28;20068;-67
2022/07/04 08:35:36;;;;;;;4.72;0.77;;;;;;;19.67;43.66;101258.72;5091333;28;20068;-67
2022/07/04 08:38:02;;;;;;;2.42;0.68;;;;;;;19.97;42.98;101261.94;5091899;28;20040;-67
2022/07/04 08:40:30;;;;;;;2.72;0.80;;;;;;;19.97;43.05;101251.03;5091337;28;20130;-67
2022/07/04 08:42:57;;;;;;;4.43;0.80;;;;;;;20.16;42.32;101249.34;5089671;28;20076;-68
2022/07/04 08:45:29;;;;;;;2.75;1.15;;;;;;;20.17;42.54;101254.56;5092350;28;20074;-68
2022/07/04 08:48:04;;;;;;;9.30;1.20;;;;;;;20.19;42.56;101251.66;5095251;28;20039;-69
2022/07/04 08:50:34;;;;;;;3.15;0.80;;;;;;;20.33;42.54;101257.91;5111893;28;20067;-68
2022/07/04 08:53:02;;;;;;;3.63;0.73;;;;;;;20.44;42.06;101254.56;5111609;28;20498;-68
2022/07/04 08:58:29;;;;;;;5.45;1.20;;;;;;;20.44;42.44;101255.41;5112804;28;20039;-68
2022/07/04 09:00:58;;;;;;;4.28;0.82;;;;;;;20.53;41.44;101252.47;5112524;28;20467;-68
2022/07/04 09:03:26;;;;;;;6.13;1.20;;;;;;;20.61;40.84;101255.78;5111797;28;20039;-69
2022/07/04 09:05:54;;;;;;;4.68;1.00;;;;;;;20.68;40.99;101253.03;5109768;28;20048;-72
2022/07/04 09:08:21;;;;;;;4.38;1.00;;;;;;;20.75;40.88;101256.56;5102033;28;20178;-69
2022/07/04 09:10:50;;;;;;;4.97;1.00;;;;;;;20.65;41.33;101264.38;5111219;28;20134;-69
2022/07/04 09:13:17;;;;;;;3.72;1.20;;;;;;;20.75;41.31;101270.22;5112560;28;20071;-69
2022/07/04 09:15:47;;;;;;;11.73;1.25;;;;;;;21.37;40.20;101268.72;5111296;28;20078;-68
2022/07/04 09:18:25;;;;;;;3.88;1.00;;;;;;;21.32;40.68;101268.53;5111195;28;20464;-68
2022/07/04 09:20:54;;;;;;;3.35;1.00;;;;;;;21.99;39.50;101263.47;5111847;28;20123;-68
2022/07/04 09:23:23;;;;;;;3.60;1.10;;;;;;;21.68;39.62;101261.59;5102232;28;20119;-68
2022/07/04 09:26:08;;;;;;;6.72;1.75;;;;;;;22.70;37.33;101255.84;5090633;28;20480;-68
2022/07/04 09:28:36;;;;;;;4.65;1.45;;;;;;;21.83;38.84;101248.47;5090440;28;20051;-68
2022/07/04 09:31:13;;;;;;;4.90;0.82;;;;;;;21.99;38.26;101259.91;5104665;28;20579;-69
2022/07/04 09:33:50;;;;;;;3.00;0.95;;;;;;;21.49;39.13;101257.09;5111063;28;20048;-69
2022/07/04 09:36:20;;;;;;;2.83;0.70;;;;;;;21.19;39.59;101256.88;5112383;28;20502;-69
2022/07/04 09:39:18;;;;;;;4.95;1.02;;;;;;;21.20;38.77;101247.63;5111417;28;20515;-69
2022/07/04 09:41:58;;;;;;;4.28;0.88;;;;;;;20.79;39.28;101252.38;5112848;28;20471;-70
2022/07/04 09:44:28;;;;;;;4.95;0.90;;;;;;;21.14;38.58;101257.50;5115499;28;20050;-69
2022/07/04 09:46:56;;;;;;;3.60;0.90;;;;;;;21.40;38.35;101252.97;5116023;28;20052;-69
2022/07/04 09:49:23;;;;;;;2.50;1.00;;;;;;;21.28;38.69;101255.53;5113138;28;20048;-69
2022/07/04 09:51:51;;;;;;;5.32;1.20;;;;;;;21.30;38.65;101258.91;5099940;28;20075;-69
2022/07/04 09:54:22;;;;;;;6.30;1.20;;;;;;;21.29;38.52;101260.78;5096552;28;20466;-70
2022/07/04 09:56:51;;;;;;;3.45;0.95;;;;;;;21.46;37.90;101265.72;5114535;28;20127;-69
2022/07/04 09:59:19;;;;;;;4.63;1.00;;;;;;;21.25;38.29;101258.69;5114531;28;20097;-69
2022/07/04 10:01:46;;;;;;;5.90;1.02;;;;;;;21.24;38.31;101268.78;5111734;28;20126;-69
2022/07/04 10:04:13;;;;;;;5.97;1.23;;;;;;;21.88;37.51;101260.66;5114819;28;20043;-68
2022/07/04 10:06:42;;;;;;;4.70;1.00;;;;;;;21.65;37.54;101267.47;5115259;28;20089;-68
2022/07/04 10:09:16;;;;;;;4.47;1.13;;;;;;;21.83;37.26;101264.84;5111170;28;20135;-68
2022/07/04 10:11:46;;;;;;;6.43;1.33;;;;;;;21.32;38.23;101257.63;5115932;28;20067;-68
2022/07/04 10:14:14;;;;;;;5.07;1.00;;;;;;;20.81;38.49;101255.72;5115135;28;20394;-68
2022/07/04 10:16:41;;;;;;;4.68;0.70;;;;;;;20.43;38.61;101267.34;5111307;28;20470;-68
2022/07/04 10:19:09;;;;;;;2.00;1.00;;;;;;;20.30;38.79;101277.41;5115336;28;20432;-68
2022/07/04 10:21:36;;;;;;;3.88;0.90;;;;;;;20.58;37.97;101271.72;5114722;28;20118;-68
2022/07/04 10:24:03;;;;;;;4.60;0.77;;;;;;;20.80;37.85;101270.44;5114948;28;20044;-68
2022/07/04 10:26:31;;;;;;;4.65;0.95;;;;;;;21.01;37.35;101268.44;5114775;28;20063;-68
2022/07/04 10:28:58;;;;;;;5.03;1.00;;;;;;;20.73;37.68;101269.59;5114299;28;20122;-68
2022/07/04 10:31:28;;;;;;;4.88;1.05;;;;;;;21.05;37.38;101264.25;5112821;28;20550;-68
2022/07/04 10:33:57;;;;;;;2.80;0.95;;;;;;;20.94;37.36;101263.03;5115555;28;20043;-68
2022/07/04 10:36:29;;;;;;;3.00;0.93;;;;;;;20.63;38.25;101266.50;5114952;28;20082;-68
2022/07/04 10:38:58;;;;;;;4.75;0.70;;;;;;;20.44;38.76;101260.84;5114796;28;20071;-68
2022/07/04 10:41:30;;;;;;;3.40;1.10;;;;;;;20.54;38.92;101265.88;5106759;28;20498;-68
2022/07/04 10:44:06;;;;;;;5.75;1.00;;;;;;;21.29;37.20;101252.59;5114668;28;20067;-69
2022/07/04 10:46:36;;;;;;;4.53;0.80;;;;;;;20.66;38.74;101258.72;5114210;28;20059;-69
2022/07/04 10:49:16;;;;;;;4.75;0.75;;;;;;;20.68;38.76;101255.75;5115502;28;20089;-69
2022/07/04 10:51:51;;;;;;;3.13;0.82;;;;;;;20.77;38.27;101248.19;5114944;28;20067;-69
2022/07/04 10:54:35;;;;;;;4.32;0.90;;;;;;;20.69;38.59;101246.53;5114138;28;20039;-68
2022/07/04 10:57:13;;;;;;;5.30;1.00;;;;;;;20.63;38.65;101252.84;5114709;28;20066;-68
2022/07/04 10:59:42;;;;;;;3.38;0.98;;;;;;;20.46;39.02;101257.09;5113877;28;20065;-68
2022/07/04 11:02:09;;;;;;;6.68;1.00;;;;;;;20.32;39.04;101253.53;5114054;28;20134;-69
2022/07/04 11:04:54;;;;;;;3.58;0.95;;;;;;;20.13;39.15;101242.41;5114645;28;20043;-68
2022/07/04 11:07:30;;;;;;;1.95;0.70;;;;;;;20.11;39.18;101239.09;5114945;28;20097;-68
2022/07/04 11:10:12;;;;;;;9.57;1.17;;;;;;;20.69;37.85;101235.63;5113759;28;20536;-68
2022/07/04 11:12:53;;;;;;;6.90;1.40;;;;;;;20.35;39.01;101234.00;5113918;28;20056;-68
2022/07/04 11:15:32;;;;;;;5.88;0.90;;;;;;;20.36;39.27;101232.97;5114633;28;20040;-68
2022/07/04 11:18:00;;;;;;;3.15;0.95;;;;;;;20.78;38.08;101222.59;5113151;28;20071;-68
2022/07/04 11:20:28;;;;;;;2.83;1.02;;;;;;;20.73;38.13;101225.13;5113699;28;20495;-68
2022/07/04 11:23:08;;;;;;;3.42;1.40;;;;;;;20.44;39.02;101222.69;5113221;28;20069;-68
2022/07/04 11:25:36;;;;;;;3.70;1.05;;;;;;;20.35;39.23;101234.88;5094583;28;20040;-68
2022/07/04 11:28:20;;;;;;;4.18;0.98;;;;;;;20.23;39.65;101227.53;5093107;28;20039;-68
2022/07/04 11:31:07;;;;;;;4.22;1.05;;;;;;;20.46;38.94;101221.66;5092321;28;20040;-68
2022/07/04 11:33:36;;;;;;;7.50;1.00;;;;;;;20.22;39.56;101218.53;5102645;28;20089;-68
2022/07/04 11:36:12;;;;;;;2.88;0.88;;;;;;;20.36;39.29;101216.63;5112752;28;20047;-69
2022/07/04 11:38:53;;;;;;;4.30;0.85;;;;;;;20.53;39.11;101219.75;5113098;28;20515;-68
2022/07/04 11:47:19;;;;;;;5.90;1.05;;;;;;;20.30;39.20;101225.63;5108475;28;20043;-68
2022/07/04 11:49:53;;;;;;;3.53;0.70;;;;;;;20.83;37.78;101209.97;5112360;28;20055;-69
2022/07/04 11:52:24;;;;;;;6.18;1.05;;;;;;;20.39;38.92;101213.47;5112312;28;20051;-68
2022/07/04 11:55:13;;;;;;;7.20;0.70;;;;;;;20.31;38.98;101213.69;5113007;28;20040;-68
2022/07/04 11:57:43;;;;;;;5.25;1.02;;;;;;;20.50;38.77;101215.56;5109663;28;20134;-69